Time;durP1;ratioP1;P1;durP2;ratioP2;P2;SDS_P1;SDS_P2;PMS_P1;PMS_P2;Temp;Humidity;BMP_temperature;BMP_pressure;BME280_temperature;BME280_humidity;BME280_pressure;Samples;Min_cycle;Max_cycle;Signal;HPM_P1;HPM_P2
2023/12/29 00:00:25;;;;;;;1.38;0.55;;;;;;;20.39;44.92;100686.75;5002239;28;115394;-78
2023/12/29 00:02:51;;;;;;;2.78;0.90;;;;;;;20.39;44.83;100692.03;5006478;28;96980;-78
2023/12/29 00:05:16;;;;;;;1.90;0.80;;;;;;;20.38;44.88;100704.44;5005021;28;97789;-77
2023/12/29 00:07:42;;;;;;;1.15;0.50;;;;;;;20.38;44.83;100701.78;5004133;28;97312;-77
2023/12/29 00:10:08;;;;;;;1.65;0.60;;;;;;;20.38;44.92;100688.53;4990470;28;96917;-77
2023/12/29 00:12:34;;;;;;;1.63;0.68;;;;;;;20.35;44.93;100684.19;5007203;28;96827;-77
2023/12/29 00:14:59;;;;;;;1.52;0.45;;;;;;;20.37;44.60;100678.00;4999527;28;96826;-77
2023/12/29 00:17:24;;;;;;;1.35;0.50;;;;;;;20.37;44.62;100676.19;5009585;28;98353;-77
2023/12/29 00:19:50;;;;;;;1.38;0.50;;;;;;;20.39;44.85;100681.44;5010868;28;96859;-78
2023/12/29 00:22:15;;;;;;;2.40;0.88;;;;;;;20.37;45.04;100672.69;5011227;28;96789;-77
2023/12/29 00:24:41;;;;;;;2.10;0.50;;;;;;;20.37;44.84;100684.13;5009709;28;110011;-77
2023/12/29 00:27:06;;;;;;;1.95;0.60;;;;;;;20.34;44.72;100685.13;5011068;28;126567;-77
2023/12/29 00:29:34;;;;;;;2.30;0.82;;;;;;;20.34;44.72;100679.81;5008808;28;97924;-78
2023/12/29 00:32:00;;;;;;;3.03;1.13;;;;;;;20.37;44.71;100678.84;5010092;28;97278;-77
2023/12/29 00:34:26;;;;;;;2.08;0.70;;;;;;;20.33;44.88;100678.06;4991755;28;100610;-78
2023/12/29 00:36:51;;;;;;;2.05;0.77;;;;;;;20.33;45.06;100678.06;4992034;28;100394;-77
2023/12/29 00:39:16;;;;;;;2.10;0.43;;;;;;;20.36;44.73;100674.47;5010523;28;96777;-76
2023/12/29 00:41:42;;;;;;;2.22;0.65;;;;;;;20.38;44.61;100667.34;5010297;28;96783;-77
2023/12/29 00:44:08;;;;;;;0.82;0.43;;;;;;;20.37;44.86;100668.25;5007687;28;125676;-77
2023/12/29 00:46:33;;;;;;;2.38;0.70;;;;;;;20.37;44.55;100665.59;4992253;28;100170;-77
2023/12/29 00:49:00;;;;;;;2.05;0.90;;;;;;;20.37;44.89;100647.06;5009425;28;98698;-77
2023/12/29 00:51:26;;;;;;;2.53;0.80;;;;;;;20.41;44.53;100642.53;5011185;28;97691;-77
2023/12/29 00:53:52;;;;;;;2.25;0.82;;;;;;;20.38;44.67;100632.91;4991652;28;100081;-77
2023/12/29 00:56:18;;;;;;;2.03;0.60;;;;;;;20.39;44.86;100637.28;5008080;28;99871;-77
2023/12/29 00:58:44;;;;;;;1.35;0.60;;;;;;;20.40;44.73;100643.47;5008277;28;97434;-77
2023/12/29 01:01:11;;;;;;;2.92;0.70;;;;;;;20.40;44.94;100651.41;5009040;28;96893;-77
2023/12/29 01:03:37;;;;;;;2.10;0.70;;;;;;;20.38;44.66;100653.25;5026046;28;96816;-77
2023/12/29 01:06:02;;;;;;;2.55;1.00;;;;;;;20.37;44.69;100654.16;5016669;28;99283;-77
2023/12/29 01:08:28;;;;;;;1.60;0.60;;;;;;;20.38;44.81;100650.59;5008398;28;96718;-77
2023/12/29 01:10:53;;;;;;;2.42;0.60;;;;;;;20.38;44.86;100650.59;5009164;28;96974;-77
2023/12/29 01:13:18;;;;;;;1.30;0.70;;;;;;;20.37;44.69;100636.47;5008966;28;97592;-77
2023/12/29 01:15:45;;;;;;;1.63;0.63;;;;;;;20.36;44.83;100655.94;5008005;28;120615;-77
2023/12/29 01:18:11;;;;;;;1.33;0.70;;;;;;;20.34;44.82;100652.47;5008676;28;97969;-77
2023/12/29 01:20:36;;;;;;;2.58;0.70;;;;;;;20.35;45.01;100648.88;5008696;28;97423;-77
2023/12/29 01:23:01;;;;;;;2.40;0.70;;;;;;;20.33;44.79;100632.19;5009510;28;120294;-77
2023/12/29 01:25:27;;;;;;;1.92;0.52;;;;;;;20.36;44.83;100634.75;5008655;28;96938;-77
2023/12/29 01:27:53;;;;;;;2.05;0.65;;;;;;;20.37;44.87;100651.50;5009765;28;96930;-77
2023/12/29 01:30:20;;;;;;;1.77;0.82;;;;;;;20.35;44.95;100662.13;5008607;28;96910;-77
2023/12/29 01:32:45;;;;;;;2.78;0.95;;;;;;;20.36;44.93;100655.94;5007440;28;119968;-77
2023/12/29 01:35:10;;;;;;;1.60;0.73;;;;;;;20.35;44.90;100651.53;5009389;28;124669;-77
2023/12/29 01:37:36;;;;;;;1.50;0.60;;;;;;;20.35;44.82;100646.25;5004983;28;101319;-77
2023/12/29 01:40:01;;;;;;;2.42;0.88;;;;;;;20.35;44.47;100648.88;4992388;28;97459;-77
2023/12/29 01:42:27;;;;;;;1.60;0.90;;;;;;;20.37;44.99;100647.06;5006664;28;98915;-77
2023/12/29 01:44:54;;;;;;;1.08;0.55;;;;;;;20.37;44.68;100651.50;5001600;28;97326;-77
2023/12/29 01:47:21;;;;;;;1.27;0.55;;;;;;;20.35;44.79;100656.84;5004808;28;96931;-77
2023/12/29 01:49:49;;;;;;;3.22;0.82;;;;;;;20.34;44.65;100626.84;5003194;28;97072;-77
2023/12/29 01:52:18;;;;;;;1.63;0.73;;;;;;;20.35;44.89;100643.59;4982997;28;97878;-77
2023/12/29 01:54:47;;;;;;;2.50;0.77;;;;;;;20.35;44.62;100647.09;4989964;28;99370;-77
2023/12/29 01:57:14;;;;;;;2.72;0.63;;;;;;;20.35;44.94;100647.09;5014018;28;96845;-77
2023/12/29 01:59:40;;;;;;;1.63;0.52;;;;;;;20.37;44.56;100646.19;4988977;28;96942;-77
2023/12/29 02:02:06;;;;;;;1.58;0.70;;;;;;;20.34;45.01;100648.03;5008466;28;99673;-77
2023/12/29 02:04:31;;;;;;;1.63;0.68;;;;;;;20.38;44.65;100645.31;4990793;28;98599;-77
2023/12/29 02:06:57;;;;;;;2.65;0.50;;;;;;;20.39;44.81;100641.72;5007079;28;96740;-77
2023/12/29 02:09:25;;;;;;;1.77;0.70;;;;;;;20.38;44.65;100629.41;5009151;28;97332;-78
2023/12/29 02:11:50;;;;;;;2.03;0.68;;;;;;;20.36;45.05;100637.41;5007545;28;97397;-77
2023/12/29 02:14:17;;;;;;;2.15;0.85;;;;;;;20.35;44.92;100625.06;5021911;28;97210;-77
2023/12/29 02:17:10;;;;;;;2.08;0.82;;;;;;;20.33;44.82;100637.47;5011436;28;96845;-77
2023/12/29 02:19:46;;;;;;;2.47;0.80;;;;;;;20.33;45.03;100633.03;5015190;28;96950;-77
2023/12/29 02:22:12;;;;;;;1.48;0.70;;;;;;;20.36;44.76;100645.34;5001841;28;98737;-77
2023/12/29 02:24:38;;;;;;;1.20;0.60;;;;;;;20.37;44.57;100640.91;5029037;28;99889;-77
2023/12/29 02:27:18;;;;;;;1.25;0.57;;;;;;;20.37;44.76;100649.72;5031145;28;96817;-77
2023/12/29 02:29:49;;;;;;;2.33;0.68;;;;;;;20.35;44.91;100636.50;4991551;28;96714;-77
2023/12/29 02:32:18;;;;;;;1.65;0.80;;;;;;;20.36;44.74;100640.03;4992228;28;99037;-77
2023/12/29 02:34:46;;;;;;;1.45;0.52;;;;;;;20.37;44.91;100640.91;5010783;28;100867;-77
2023/12/29 02:37:12;;;;;;;1.52;0.60;;;;;;;20.35;44.75;100627.69;5012982;28;97306;-77
2023/12/29 02:39:38;;;;;;;1.88;0.70;;;;;;;20.34;44.75;100626.00;5010890;28;96896;-77
2023/12/29 02:42:04;;;;;;;2.50;0.85;;;;;;;20.33;44.76;100633.03;5006628;28;97548;-77
2023/12/29 02:44:29;;;;;;;1.50;0.80;;;;;;;20.32;44.96;100631.31;5013924;28;97015;-77
2023/12/29 02:46:55;;;;;;;2.58;0.85;;;;;;;20.32;45.17;100628.69;5013308;28;116964;-76
2023/12/29 02:49:20;;;;;;;1.65;0.60;;;;;;;20.29;44.98;100623.47;5011821;28;97306;-78
2023/12/29 02:51:47;;;;;;;2.13;0.80;;;;;;;20.30;45.08;100619.91;4994374;28;107220;-77
2023/12/29 02:54:13;;;;;;;1.02;0.50;;;;;;;20.31;44.78;100623.44;5012624;28;97317;-77
2023/12/29 02:56:38;;;;;;;1.23;0.60;;;;;;;20.31;45.12;100626.94;5026549;28;96734;-77
2023/12/29 02:59:04;;;;;;;2.15;0.73;;;;;;;20.32;44.99;100619.84;5011841;28;117702;-77
2023/12/29 03:01:29;;;;;;;1.10;0.73;;;;;;;20.33;45.23;100613.66;5024157;28;114905;-77
2023/12/29 03:03:55;;;;;;;1.40;0.60;;;;;;;20.33;44.92;100616.28;5017982;28;97473;-77
2023/12/29 03:06:20;;;;;;;2.25;0.60;;;;;;;20.32;45.10;100628.69;5011706;27;96751;-77
2023/12/29 03:08:45;;;;;;;2.40;0.50;;;;;;;20.32;44.78;100612.78;5008885;28;116782;-77
2023/12/29 03:11:11;;;;;;;1.67;0.77;;;;;;;20.34;44.98;100618.03;5005795;28;100296;-77
2023/12/29 03:13:36;;;;;;;1.90;0.90;;;;;;;20.33;44.83;100617.16;5008363;28;125238;-78
2023/12/29 03:16:01;;;;;;;2.00;0.55;;;;;;;20.33;44.95;100611.84;5010197;28;98009;-77
2023/12/29 03:18:27;;;;;;;1.73;0.70;;;;;;;20.35;44.78;100609.16;5009549;28;96983;-77
2023/12/29 03:20:52;;;;;;;1.30;0.57;;;;;;;20.33;44.89;100606.56;5008804;28;125516;-77
2023/12/29 03:23:17;;;;;;;1.45;0.77;;;;;;;20.33;44.96;100611.84;4996019;28;100000;-77
2023/12/29 03:25:43;;;;;;;2.00;0.70;;;;;;;20.33;45.11;100603.06;4992644;28;114488;-77
2023/12/29 03:28:08;;;;;;;1.55;0.77;;;;;;;20.33;45.15;100598.59;5009830;28;97269;-78
2023/12/29 03:30:34;;;;;;;1.75;0.65;;;;;;;20.34;45.03;100602.16;4990956;28;100307;-77
2023/12/29 03:32:59;;;;;;;2.17;0.40;;;;;;;20.34;45.08;100613.59;5008314;28;122926;-78
2023/12/29 03:35:24;;;;;;;1.90;0.68;;;;;;;20.33;44.95;100614.50;4992295;28;107054;-78
2023/12/29 03:37:49;;;;;;;0.98;0.40;;;;;;;20.33;45.08;100609.22;5011556;28;116562;-78
2023/12/29 03:40:15;;;;;;;2.00;0.52;;;;;;;20.33;45.08;100614.50;5006588;28;99170;-78
2023/12/29 03:42:41;;;;;;;1.30;0.52;;;;;;;20.32;44.95;100610.13;4992707;28;98580;-78
2023/12/29 03:45:07;;;;;;;2.72;0.63;;;;;;;20.33;44.85;100605.69;5010660;28;98256;-78
2023/12/29 03:47:32;;;;;;;2.25;0.90;;;;;;;20.31;44.94;100603.09;5013637;28;96686;-78
2023/12/29 03:49:58;;;;;;;1.13;0.60;;;;;;;20.31;45.05;100596.94;5007881;28;99887;-78
2023/12/29 03:52:23;;;;;;;1.35;0.50;;;;;;;20.33;44.99;100603.06;5012541;28;126345;-78
2023/12/29 03:54:48;;;;;;;2.58;0.60;;;;;;;20.32;44.82;100586.31;5014380;28;110182;-78
2023/12/29 03:57:14;;;;;;;2.53;0.70;;;;;;;20.33;44.81;100603.06;5016997;28;116795;-78
2023/12/29 03:59:39;;;;;;;0.70;0.45;;;;;;;20.33;44.87;100598.59;5010728;28;96777;-78
2023/12/29 04:02:06;;;;;;;0.90;0.45;;;;;;;20.34;44.77;100584.47;5008258;28;97139;-78
2023/12/29 04:04:31;;;;;;;2.25;0.70;;;;;;;20.33;45.02;100589.81;5008370;28;97193;-78
2023/12/29 04:06:56;;;;;;;1.77;0.55;;;;;;;20.34;44.94;100602.16;5005360;28;111658;-78
2023/12/29 04:09:22;;;;;;;1.50;0.60;;;;;;;20.33;45.16;100605.69;5004519;28;98244;-78
2023/12/29 04:11:47;;;;;;;1.35;0.50;;;;;;;20.33;44.90;100603.06;5009099;28;112564;-78
2023/12/29 04:14:13;;;;;;;2.25;0.65;;;;;;;20.34;44.90;100600.34;4990561;28;96930;-78
2023/12/29 04:16:39;;;;;;;1.95;0.60;;;;;;;20.34;44.92;100596.84;5008467;28;97043;-78
2023/12/29 04:19:04;;;;;;;1.25;0.45;;;;;;;20.34;45.12;100597.72;5000046;28;100596;-78
2023/12/29 04:21:30;;;;;;;2.83;0.85;;;;;;;20.34;44.84;100600.34;5009098;28;97171;-78
2023/12/29 04:23:56;;;;;;;0.63;0.30;;;;;;;20.35;44.89;100594.13;5005080;28;97042;-78
2023/12/29 04:26:22;;;;;;;1.98;0.70;;;;;;;20.34;45.02;100592.41;5005855;28;97438;-78
2023/12/29 04:28:48;;;;;;;1.80;0.70;;;;;;;20.33;45.18;100593.31;5010688;28;97470;-78
2023/12/29 04:31:13;;;;;;;2.15;0.70;;;;;;;20.33;45.11;100603.91;5009465;28;125010;-78
2023/12/29 04:33:39;;;;;;;1.17;0.68;;;;;;;20.33;45.13;100595.09;5010253;28;98307;-78
2023/12/29 04:36:05;;;;;;;1.75;0.50;;;;;;;20.36;44.73;100587.06;5008506;28;114390;-77
2023/12/29 04:38:30;;;;;;;1.55;0.63;;;;;;;20.37;44.63;100601.16;5009529;28;97478;-78
2023/12/29 04:40:55;;;;;;;1.52;0.40;;;;;;;20.36;44.75;100592.38;5008636;28;121529;-78
2023/12/29 04:43:21;;;;;;;2.90;0.70;;;;;;;20.37;44.74;100598.53;5008816;28;97088;-77
2023/12/29 04:45:46;;;;;;;2.50;0.80;;;;;;;20.34;44.65;100592.41;5010183;28;96930;-78
2023/12/29 04:48:12;;;;;;;1.65;0.82;;;;;;;20.35;44.71;100590.63;5010380;28;97396;-78
2023/12/29 04:50:37;;;;;;;0.90;0.52;;;;;;;20.34;44.59;100608.31;5011495;28;97201;-78
2023/12/29 04:53:03;;;;;;;2.58;0.98;;;;;;;20.35;44.77;100594.13;5011802;28;115832;-78
2023/12/29 04:55:28;;;;;;;3.15;0.63;;;;;;;20.36;44.68;100600.31;4992639;28;96946;-78
2023/12/29 04:57:54;;;;;;;2.22;0.80;;;;;;;20.35;45.18;100594.13;5007235;28;128691;-78
2023/12/29 05:00:19;;;;;;;0.90;0.50;;;;;;;20.35;44.89;100598.56;5006917;28;125542;-78
2023/12/29 05:02:44;;;;;;;1.85;0.50;;;;;;;20.34;45.23;100608.31;5008737;28;96899;-78
2023/12/29 05:05:10;;;;;;;3.22;0.70;;;;;;;20.34;45.02;100608.31;5010707;28;98000;-78
2023/12/29 05:07:35;;;;;;;1.92;0.73;;;;;;;20.33;44.82;100609.22;5009059;28;96906;-78
2023/12/29 05:10:01;;;;;;;1.23;0.80;;;;;;;20.35;45.07;100614.47;4991387;28;97359;-78
2023/12/29 05:12:26;;;;;;;1.55;0.63;;;;;;;20.34;45.10;100610.94;5010353;28;97119;-78
2023/12/29 05:14:51;;;;;;;1.73;0.63;;;;;;;20.31;44.78;100616.34;5011103;28;97369;-78
2023/12/29 05:17:17;;;;;;;1.65;0.70;;;;;;;20.31;45.10;100612.84;5009290;28;126775;-78
2023/12/29 05:19:42;;;;;;;1.00;0.45;;;;;;;20.34;45.08;100607.44;5009692;28;111205;-78
2023/12/29 05:22:07;;;;;;;1.67;0.68;;;;;;;20.34;44.78;100621.53;5009208;28;116628;-78
2023/12/29 05:24:33;;;;;;;1.50;0.73;;;;;;;20.35;45.07;100615.31;5009726;28;96970;-78
2023/12/29 05:26:58;;;;;;;2.28;0.52;;;;;;;20.35;45.02;100609.16;5010251;28;96750;-78
2023/12/29 05:29:24;;;;;;;0.88;0.50;;;;;;;20.33;45.09;100621.59;5008241;28;119104;-78
2023/12/29 05:31:49;;;;;;;2.53;0.50;;;;;;;20.33;45.09;100608.34;5009863;28;96680;-78
2023/12/29 05:34:14;;;;;;;2.05;0.75;;;;;;;20.32;44.63;100607.50;5021467;28;96737;-78
2023/12/29 05:36:40;;;;;;;1.52;0.70;;;;;;;20.32;44.65;100607.50;5017483;28;129478;-77
2023/12/29 05:39:06;;;;;;;2.88;0.80;;;;;;;20.33;44.74;100617.16;5026284;28;97241;-77
2023/12/29 05:41:31;;;;;;;2.03;0.60;;;;;;;20.33;44.95;100613.66;5009141;28;117074;-78
2023/12/29 05:43:57;;;;;;;1.88;0.70;;;;;;;20.31;45.37;100619.00;5006349;28;107506;-78
2023/12/29 05:46:23;;;;;;;0.93;0.45;;;;;;;20.31;45.11;100613.69;5015795;28;97462;-78
2023/12/29 05:48:48;;;;;;;1.42;0.55;;;;;;;20.31;44.91;100616.34;5009592;28;97137;-78
2023/12/29 05:51:14;;;;;;;1.42;0.50;;;;;;;20.30;45.07;100616.38;5022115;28;96690;-78
2023/12/29 05:53:40;;;;;;;2.05;0.82;;;;;;;20.32;44.89;100617.19;5017224;28;98827;-78
2023/12/29 05:56:06;;;;;;;1.58;0.60;;;;;;;20.32;44.92;100612.78;5016987;28;98408;-78
2023/12/29 05:58:31;;;;;;;2.08;0.70;;;;;;;20.31;45.23;100616.34;5011093;28;96800;-78
2023/12/29 06:00:58;;;;;;;1.20;0.50;;;;;;;20.29;45.07;100615.53;5019295;28;97367;-78
2023/12/29 06:03:24;;;;;;;1.80;0.68;;;;;;;20.32;44.76;100627.78;5013267;28;96914;-78
2023/12/29 06:05:49;;;;;;;1.30;0.70;;;;;;;20.32;44.84;100618.09;5020013;28;96922;-79
2023/12/29 06:08:14;;;;;;;1.33;0.65;;;;;;;20.32;44.60;100623.38;5013881;27;97232;-78
2023/12/29 06:10:40;;;;;;;2.45;0.85;;;;;;;20.31;45.14;100624.28;5012535;28;97124;-78
2023/12/29 06:13:05;;;;;;;2.00;0.80;;;;;;;20.31;44.92;100623.44;5013112;28;97682;-78
2023/12/29 06:15:31;;;;;;;1.80;0.50;;;;;;;20.32;44.96;100612.78;5011890;28;127352;-77
2023/12/29 06:17:56;;;;;;;1.98;0.50;;;;;;;20.33;44.95;100611.00;5012926;28;96788;-78
2023/12/29 06:20:22;;;;;;;2.28;0.70;;;;;;;20.35;44.91;100615.31;5020467;28;97473;-78
2023/12/29 06:22:47;;;;;;;2.00;0.63;;;;;;;20.35;44.63;100611.81;5017447;28;97335;-78
2023/12/29 06:25:13;;;;;;;3.00;0.77;;;;;;;20.33;44.95;100603.91;5020077;28;96818;-78
2023/12/29 06:27:40;;;;;;;1.27;0.50;;;;;;;20.34;44.83;100620.69;5010216;28;97240;-78
2023/12/29 06:30:06;;;;;;;0.80;0.50;;;;;;;20.34;44.92;100620.69;5008872;28;97225;-78
2023/12/29 06:32:32;;;;;;;1.40;0.60;;;;;;;20.34;45.15;100629.50;5012008;28;97326;-78
2023/12/29 06:34:57;;;;;;;1.33;0.60;;;;;;;20.35;45.15;100633.00;5002423;28;106046;-78
2023/12/29 06:37:23;;;;;;;1.85;0.85;;;;;;;20.35;44.90;100625.91;5005731;28;99549;-78
2023/12/29 06:39:48;;;;;;;1.38;0.57;;;;;;;20.34;44.88;100620.69;5011974;28;96725;-78
2023/12/29 06:42:13;;;;;;;1.60;0.77;;;;;;;20.34;44.79;100612.75;5017886;27;115523;-78
2023/12/29 06:44:39;;;;;;;1.88;0.50;;;;;;;20.34;44.78;100605.66;5016541;28;97366;-77
2023/12/29 06:47:06;;;;;;;1.63;0.60;;;;;;;20.34;44.59;100597.72;5007031;28;126503;-78
2023/12/29 06:49:32;;;;;;;1.92;0.63;;;;;;;20.34;44.68;100604.78;5011788;28;96705;-78
2023/12/29 06:51:58;;;;;;;2.28;0.80;;;;;;;20.35;44.82;100601.22;5017018;28;96835;-77
2023/12/29 06:54:23;;;;;;;1.60;0.60;;;;;;;20.35;44.90;100598.56;5016146;28;126956;-78
2023/12/29 06:56:48;;;;;;;1.42;0.52;;;;;;;20.33;44.77;100601.25;5015346;27;122999;-78
2023/12/29 06:59:14;;;;;;;1.88;0.60;;;;;;;20.32;44.99;100602.19;5010057;28;118570;-78
2023/12/29 07:01:42;;;;;;;0.90;0.50;;;;;;;20.33;45.10;100606.56;5011054;28;96838;-78
2023/12/29 07:04:10;;;;;;;1.90;0.65;;;;;;;20.32;44.89;100604.84;5010967;28;97621;-78
2023/12/29 07:06:36;;;;;;;1.60;0.60;;;;;;;20.33;45.09;100595.09;5011471;28;97212;-78
2023/12/29 07:09:02;;;;;;;1.80;0.63;;;;;;;20.33;44.92;100603.91;5011125;28;96773;-78
2023/12/29 07:11:28;;;;;;;2.22;0.70;;;;;;;20.34;45.19;100602.16;5012322;28;96999;-78
2023/12/29 07:13:53;;;;;;;2.50;0.70;;;;;;;20.33;44.78;100611.84;5011303;28;97624;-78
2023/12/29 07:16:20;;;;;;;1.80;0.57;;;;;;;20.35;44.90;100607.38;5012085;28;112631;-78
2023/12/29 07:18:46;;;;;;;1.60;0.60;;;;;;;20.37;44.97;100611.75;5011891;28;96975;-78
2023/12/29 07:21:12;;;;;;;3.85;0.55;;;;;;;20.35;45.14;100602.06;5010431;28;97088;-78
2023/12/29 07:23:38;;;;;;;2.03;0.63;;;;;;;20.35;44.81;100594.13;5009464;28;97507;-78
2023/12/29 07:26:03;;;;;;;1.73;0.70;;;;;;;20.37;45.11;100590.56;5012635;28;97283;-78
2023/12/29 07:28:28;;;;;;;0.77;0.35;;;;;;;20.35;44.77;100585.31;5007311;28;97462;-78
2023/12/29 07:30:54;;;;;;;2.35;0.70;;;;;;;20.33;45.04;100587.16;5009966;28;96751;-78
2023/12/29 07:33:19;;;;;;;0.95;0.50;;;;;;;20.34;45.17;100578.31;5003102;28;125539;-78
2023/12/29 07:35:44;;;;;;;1.08;0.63;;;;;;;20.34;44.90;100588.91;5010035;28;126075;-78
2023/12/29 07:38:10;;;;;;;1.48;0.50;;;;;;;20.35;44.89;100593.28;5008125;28;117090;-77
2023/12/29 07:40:35;;;;;;;1.40;0.60;;;;;;;20.36;44.83;100592.38;5011328;28;96825;-78
2023/12/29 07:43:01;;;;;;;1.35;0.60;;;;;;;20.38;44.67;100592.31;5010774;28;126807;-78
2023/12/29 07:45:26;;;;;;;1.40;0.60;;;;;;;20.37;45.00;100582.63;5010956;28;97278;-77
2023/12/29 07:47:51;;;;;;;1.58;0.50;;;;;;;20.37;45.16;100579.97;5002406;28;96834;-78
2023/12/29 07:50:17;;;;;;;2.45;0.77;;;;;;;20.36;44.83;100587.06;5002211;28;117730;-78
2023/12/29 07:52:44;;;;;;;2.60;0.80;;;;;;;20.38;45.00;100579.06;5015027;28;118631;-78
2023/12/29 07:55:09;;;;;;;1.17;0.50;;;;;;;20.37;44.96;100591.44;5010429;28;97957;-78
2023/12/29 07:57:34;;;;;;;1.05;0.52;;;;;;;20.38;44.74;100584.38;4994554;28;97346;-77
2023/12/29 08:00:01;;;;;;;1.52;0.82;;;;;;;20.37;45.07;100583.47;5009645;28;97321;-78
2023/12/29 08:02:27;;;;;;;2.58;0.80;;;;;;;20.37;45.17;100595.88;5007090;28;97597;-78
2023/12/29 08:04:54;;;;;;;1.92;0.85;;;;;;;20.38;45.13;100592.31;5008081;28;99504;-78
2023/12/29 08:07:19;;;;;;;2.28;0.70;;;;;;;20.37;44.99;100596.72;5008981;28;97119;-78
2023/12/29 08:09:45;;;;;;;1.40;0.45;;;;;;;20.39;45.06;100586.09;5005755;28;97711;-78
2023/12/29 08:12:10;;;;;;;1.80;0.50;;;;;;;20.38;44.84;100592.31;4993151;28;98885;-78
2023/12/29 08:14:36;;;;;;;1.83;0.60;;;;;;;20.37;44.91;100615.28;5009697;28;97388;-78
2023/12/29 08:17:01;;;;;;;2.05;0.40;;;;;;;20.37;45.13;100612.63;5000896;28;96985;-78
2023/12/29 08:19:27;;;;;;;1.25;0.40;;;;;;;20.38;45.08;100614.38;5006858;28;97535;-77
2023/12/29 08:21:52;;;;;;;1.40;0.60;;;;;;;20.38;44.72;100605.56;5009640;28;97231;-78
2023/12/29 08:24:20;;;;;;;1.60;0.60;;;;;;;20.37;44.74;100595.88;5006163;28;113959;-78
2023/12/29 08:26:46;;;;;;;2.40;0.77;;;;;;;20.38;44.88;100585.22;5012961;28;96903;-78
2023/12/29 08:29:13;;;;;;;0.95;0.32;;;;;;;20.38;44.92;100592.31;5022640;28;97613;-78
2023/12/29 08:31:38;;;;;;;1.73;0.80;;;;;;;20.38;45.04;100595.81;5010529;28;97622;-78
2023/12/29 08:34:04;;;;;;;1.73;0.65;;;;;;;20.38;45.15;100594.97;5022754;28;97578;-78
2023/12/29 08:36:29;;;;;;;2.50;0.50;;;;;;;20.38;45.08;100598.47;5010214;28;96800;-77
2023/12/29 08:38:54;;;;;;;2.45;0.50;;;;;;;20.39;44.94;100612.56;5010345;28;105597;-78
2023/12/29 08:41:20;;;;;;;2.20;0.98;;;;;;;20.41;44.67;100610.75;5018799;28;99772;-78
2023/12/29 08:43:45;;;;;;;1.52;0.60;;;;;;;20.41;44.86;100618.69;5011418;28;97338;-78
2023/12/29 08:46:11;;;;;;;2.00;0.55;;;;;;;20.41;44.73;100619.56;5020865;27;97031;-78
2023/12/29 08:48:36;;;;;;;2.13;0.60;;;;;;;20.38;44.88;100619.66;5009625;28;115560;-78
2023/12/29 08:51:01;;;;;;;2.35;0.63;;;;;;;20.37;44.80;100623.22;5010492;28;98591;-78
2023/12/29 08:53:27;;;;;;;2.28;0.45;;;;;;;20.38;44.76;100622.31;5021335;28;97337;-78
2023/12/29 08:55:52;;;;;;;1.13;0.40;;;;;;;20.39;45.00;100629.31;5010152;28;97033;-78
2023/12/29 08:58:17;;;;;;;1.00;0.35;;;;;;;20.39;44.74;100628.47;5009343;28;115186;-78
2023/12/29 09:00:43;;;;;;;1.23;0.50;;;;;;;20.38;45.17;100624.97;5008379;28;126747;-78
2023/12/29 09:03:08;;;;;;;1.55;0.60;;;;;;;20.38;44.72;100634.69;5009238;28;97708;-77
2023/12/29 09:05:34;;;;;;;2.00;0.52;;;;;;;20.38;44.92;100638.22;5020195;28;110995;-77
2023/12/29 09:07:59;;;;;;;1.23;0.40;;;;;;;20.40;44.89;100627.56;5010209;28;96977;-78
2023/12/29 09:10:25;;;;;;;1.80;0.50;;;;;;;20.38;44.82;100621.47;5008041;28;117800;-78
2023/12/29 09:12:50;;;;;;;2.15;0.75;;;;;;;20.37;45.22;100631.16;5010840;28;97147;-78
2023/12/29 09:15:16;;;;;;;1.08;0.50;;;;;;;20.34;45.12;100637.44;5009568;28;117648;-78
2023/12/29 09:17:41;;;;;;;1.25;0.60;;;;;;;20.35;45.19;100633.00;5009565;28;96919;-78
2023/12/29 09:20:08;;;;;;;1.05;0.75;;;;;;;20.40;44.72;100635.50;5022415;27;97673;-78
2023/12/29 09:22:34;;;;;;;1.52;0.60;;;;;;;20.40;44.67;100633.72;5009395;28;96838;-78
2023/12/29 09:24:59;;;;;;;1.17;0.40;;;;;;;20.42;44.99;100633.69;4990625;28;96915;-78
2023/12/29 09:27:24;;;;;;;1.00;0.40;;;;;;;20.41;44.71;100642.53;5022135;28;114529;-78
2023/12/29 09:29:50;;;;;;;1.80;0.60;;;;;;;20.44;44.66;100639.78;5027377;28;125756;-78
2023/12/29 09:32:15;;;;;;;0.85;0.60;;;;;;;20.41;44.97;100640.78;5015690;28;97185;-78
2023/12/29 09:34:42;;;;;;;1.73;0.60;;;;;;;20.41;44.94;100653.13;5028704;28;96814;-78
2023/12/29 09:37:07;;;;;;;1.45;0.68;;;;;;;20.40;44.91;100651.41;5029064;27;96835;-78
2023/12/29 09:39:33;;;;;;;1.48;0.55;;;;;;;20.39;44.65;100653.16;5027825;28;98155;-78
2023/12/29 09:42:02;;;;;;;1.98;0.75;;;;;;;20.40;45.12;100657.56;5025171;28;102615;-78
2023/12/29 09:44:28;;;;;;;;;;;;;;;20.36;45.07;100655.94;5010185;28;96940;-78
2023/12/29 09:46:55;;;;;;;1.10;0.55;;;;;;;20.40;45.00;100662.88;5021509;28;97301;-78
2023/12/29 09:49:21;;;;;;;1.73;0.45;;;;;;;20.39;45.13;100668.19;5012308;28;97217;-78
2023/12/29 09:51:47;;;;;;;0.80;0.40;;;;;;;20.41;45.04;100663.72;5000469;28;99422;-78
2023/12/29 09:54:15;;;;;;;1.58;0.50;;;;;;;20.38;44.81;100655.91;5000350;28;96854;-78
2023/12/29 09:56:41;;;;;;;2.15;0.60;;;;;;;20.38;45.06;100658.53;5001632;28;97663;-78
2023/12/29 09:59:10;;;;;;;1.55;0.60;;;;;;;20.37;45.04;100660.31;5008693;28;97544;-78
2023/12/29 10:01:37;;;;;;;1.58;0.50;;;;;;;20.40;45.09;100664.66;4995340;28;100091;-78
2023/12/29 10:04:02;;;;;;;2.08;0.43;;;;;;;20.39;44.75;100661.13;5005698;28;97078;-78
2023/12/29 10:06:34;;;;;;;1.40;0.63;;;;;;;20.37;44.96;100655.00;5013573;28;98435;-78
2023/12/29 10:09:04;;;;;;;2.08;0.40;;;;;;;20.38;45.02;100654.09;5002171;28;98024;-78
2023/12/29 10:11:31;;;;;;;0.90;0.52;;;;;;;20.37;45.09;100659.44;5006027;28;96838;-78
2023/12/29 10:14:03;;;;;;;1.92;0.60;;;;;;;20.34;44.91;100658.63;5003141;28;96807;-78
2023/12/29 10:16:38;;;;;;;1.38;0.50;;;;;;;20.36;45.09;100658.59;5005294;28;96867;-78
2023/12/29 10:19:45;;;;;;;1.50;0.52;;;;;;;20.34;44.85;100653.34;5002418;28;97243;-78
2023/12/29 10:22:34;;;;;;;1.73;0.60;;;;;;;20.34;44.84;100655.97;5003196;28;97164;-78
2023/12/29 10:25:00;;;;;;;0.85;0.40;;;;;;;20.38;44.82;100653.25;5023419;28;96729;-78
2023/12/29 10:27:26;;;;;;;1.70;0.50;;;;;;;20.38;45.02;100645.31;5009221;28;97112;-78
2023/12/29 10:29:52;;;;;;;1.58;0.55;;;;;;;20.35;45.02;100664.78;5015291;28;98214;-78
2023/12/29 10:32:17;;;;;;;0.85;0.40;;;;;;;20.38;45.08;100666.50;5014671;27;102898;-78
2023/12/29 10:34:43;;;;;;;2.05;0.40;;;;;;;20.38;45.15;100667.34;5015685;28;97077;-78
2023/12/29 10:37:14;;;;;;;1.25;0.50;;;;;;;20.37;44.93;100665.59;5014842;27;96970;-78
2023/12/29 10:39:55;;;;;;;0.95;0.57;;;;;;;20.33;44.90;100678.06;5008814;28;97800;-78
2023/12/29 10:42:20;;;;;;;1.25;0.60;;;;;;;20.36;44.80;100671.84;5010406;28;97880;-78
2023/12/29 10:44:46;;;;;;;1.38;0.60;;;;;;;20.39;44.83;100681.44;5004818;28;117202;-78
2023/12/29 10:47:12;;;;;;;1.30;0.40;;;;;;;20.39;45.02;100689.41;5011188;28;113340;-78
2023/12/29 10:49:39;;;;;;;1.10;0.50;;;;;;;20.39;44.73;100681.44;5010771;28;96870;-78
2023/12/29 10:52:15;;;;;;;1.60;0.57;;;;;;;20.37;44.96;100678.84;4993610;28;98812;-78
2023/12/29 10:54:42;;;;;;;1.20;0.40;;;;;;;20.37;44.80;100688.59;5011813;28;96746;-78
2023/12/29 10:57:09;;;;;;;1.50;0.63;;;;;;;20.40;44.86;100680.53;5012762;28;99357;-78
2023/12/29 10:59:35;;;;;;;1.60;0.40;;;;;;;20.39;44.74;100678.81;5010269;28;99471;-78
2023/12/29 11:02:03;;;;;;;1.25;0.45;;;;;;;20.39;45.01;100673.50;5027236;28;126625;-78
2023/12/29 11:04:29;;;;;;;1.40;0.50;;;;;;;20.38;45.01;100672.66;5018127;27;96826;-78
2023/12/29 11:06:55;;;;;;;1.27;0.60;;;;;;;20.39;45.00;100670.84;5015626;28;98633;-78
2023/12/29 11:09:32;;;;;;;1.02;0.52;;;;;;;20.35;44.91;100663.00;5030212;28;110474;-78
2023/12/29 11:12:01;;;;;;;1.13;0.70;;;;;;;20.39;44.72;100653.16;5005713;28;97355;-78
2023/12/29 11:14:30;;;;;;;0.80;0.45;;;;;;;20.39;44.69;100650.53;5019122;27;96923;-78
2023/12/29 11:16:56;;;;;;;0.88;0.50;;;;;;;20.39;44.76;100652.31;5023451;27;97181;-78
2023/12/29 11:19:22;;;;;;;1.48;0.63;;;;;;;20.41;44.75;100661.97;5007402;28;99448;-78